JST535 YSSY-YMML
Flight info
| Callsign | JST535 |
|---|---|
| Flight time | 1h 7m |
| Altitude | 38000 |
| Route | MARUB7/34R WOL DCT CB DCT BOYSE |
| Aircraft | A320/M-SDE3FGHIRWY/LB1 |
Departure
| Time | 2026-05-01 10:50 |
|---|---|
| Airport | Sydney Kingsford Smith International Airport (YSSY) |
Arrival
| Time | 2026-05-01 11:58 |
|---|---|
| Airport | Melbourne Airport (YMML) |
| Time | Latitude | Longitude | Altitude | Speed | Heading |
|---|---|---|---|---|---|
| 2026-05-01 10:10 | -33.93524 | 151.17769 | 30 ft | 0 kts | 279° |
| 2026-05-01 10:35 | -33.93526 | 151.17781 | 31 ft | 2 kts | 284° |
| 2026-05-01 10:36 | -33.93532 | 151.17822 | 29 ft | 2 kts | 256° |
| 2026-05-01 10:36 | -33.93526 | 151.17833 | 30 ft | 2 kts | 214° |
| 2026-05-01 10:36 | -33.93516 | 151.17839 | 29 ft | 2 kts | 194° |
| 2026-05-01 10:37 | -33.93509 | 151.17842 | 28 ft | 0 kts | 189° |
| 2026-05-01 10:37 | -33.93517 | 151.17840 | 30 ft | 0 kts | 189° |
| 2026-05-01 10:40 | -33.93550 | 151.17833 | 30 ft | 11 kts | 190° |
| 2026-05-01 10:40 | -33.93638 | 151.17814 | 30 ft | 14 kts | 191° |
| 2026-05-01 10:40 | -33.93744 | 151.17783 | 30 ft | 17 kts | 194° |
| 2026-05-01 10:41 | -33.93862 | 151.17769 | 30 ft | 18 kts | 168° |
| 2026-05-01 10:41 | -33.93996 | 151.17804 | 29 ft | 22 kts | 168° |
| 2026-05-01 10:41 | -33.94286 | 151.17879 | 30 ft | 21 kts | 168° |
| 2026-05-01 10:42 | -33.94435 | 151.17915 | 30 ft | 20 kts | 179° |
| 2026-05-01 10:42 | -33.94563 | 151.17892 | 30 ft | 20 kts | 168° |
| 2026-05-01 10:42 | -33.94711 | 151.17931 | 30 ft | 23 kts | 167° |
| 2026-05-01 10:42 | -33.94878 | 151.17974 | 30 ft | 26 kts | 167° |
| 2026-05-01 10:43 | -33.95051 | 151.18019 | 30 ft | 16 kts | 167° |
| 2026-05-01 10:43 | -33.95097 | 151.18122 | 30 ft | 17 kts | 77° |
| 2026-05-01 10:43 | -33.95069 | 151.18275 | 30 ft | 20 kts | 78° |
| 2026-05-01 10:43 | -33.95044 | 151.18411 | 30 ft | 8 kts | 78° |
| 2026-05-01 10:44 | -33.95044 | 151.18414 | 30 ft | 0 kts | 78° |
| 2026-05-01 10:44 | -33.95043 | 151.18418 | 30 ft | 2 kts | 78° |
| 2026-05-01 10:45 | -33.95057 | 151.18495 | 30 ft | 16 kts | 133° |
| 2026-05-01 10:45 | -33.95157 | 151.18590 | 30 ft | 20 kts | 137° |
| 2026-05-01 10:45 | -33.95275 | 151.18699 | 30 ft | 23 kts | 154° |
| 2026-05-01 10:45 | -33.95438 | 151.18751 | 30 ft | 26 kts | 168° |
| 2026-05-01 10:46 | -33.95623 | 151.18799 | 30 ft | 28 kts | 167° |
| 2026-05-01 10:46 | -33.95824 | 151.18851 | 30 ft | 31 kts | 168° |
| 2026-05-01 10:46 | -33.96041 | 151.18908 | 30 ft | 33 kts | 168° |
| 2026-05-01 10:46 | -33.96258 | 151.18963 | 30 ft | 30 kts | 168° |
| 2026-05-01 10:47 | -33.96448 | 151.19013 | 30 ft | 28 kts | 168° |
| 2026-05-01 10:47 | -33.96627 | 151.19059 | 30 ft | 25 kts | 168° |
| 2026-05-01 10:47 | -33.96782 | 151.19064 | 30 ft | 24 kts | 185° |
| 2026-05-01 10:47 | -33.96948 | 151.19098 | 30 ft | 19 kts | 168° |
| 2026-05-01 10:48 | -33.97086 | 151.19134 | 30 ft | 16 kts | 165° |
| 2026-05-01 10:48 | -33.97120 | 151.19235 | 29 ft | 16 kts | 76° |
| 2026-05-01 10:48 | -33.97087 | 151.19361 | 27 ft | 14 kts | 39° |
| 2026-05-01 10:48 | -33.97023 | 151.19363 | 25 ft | 1 kts | 347° |
| 2026-05-01 10:49 | -33.96992 | 151.19354 | 25 ft | 21 kts | 347° |
| 2026-05-01 10:49 | -33.96569 | 151.19247 | 25 ft | 98 kts | 348° |
| 2026-05-01 10:49 | -33.95707 | 151.19024 | 44 ft | 151 kts | 350° |
| 2026-05-01 10:50 | -33.94643 | 151.18741 | 535 ft | 158 kts | 351° |
| 2026-05-01 10:50 | -33.93574 | 151.18858 | 1214 ft | 155 kts | 26° |
| 2026-05-01 10:50 | -33.92781 | 151.19699 | 1895 ft | 156 kts | 60° |
| 2026-05-01 10:50 | -33.92554 | 151.21034 | 2327 ft | 176 kts | 98° |
| 2026-05-01 10:51 | -33.93053 | 151.22412 | 2938 ft | 183 kts | 115° |
| 2026-05-01 10:51 | -33.93645 | 151.23775 | 3618 ft | 184 kts | 109° |
| 2026-05-01 10:51 | -33.93840 | 151.25279 | 4249 ft | 184 kts | 86° |
| 2026-05-01 10:51 | -33.93793 | 151.26900 | 4640 ft | 205 kts | 86° |
| 2026-05-01 10:52 | -33.93738 | 151.28722 | 4985 ft | 230 kts | 87° |
| 2026-05-01 10:52 | -33.93679 | 151.30748 | 5473 ft | 254 kts | 87° |
| 2026-05-01 10:52 | -33.93617 | 151.32891 | 6268 ft | 263 kts | 87° |
| 2026-05-01 10:52 | -33.93554 | 151.35114 | 7185 ft | 268 kts | 87° |
| 2026-05-01 10:53 | -33.93489 | 151.37371 | 8079 ft | 272 kts | 87° |
| 2026-05-01 10:53 | -33.93422 | 151.39670 | 8959 ft | 277 kts | 86° |
| 2026-05-01 10:53 | -33.93350 | 151.42006 | 9848 ft | 282 kts | 86° |
| 2026-05-01 10:53 | -33.93277 | 151.44396 | 10589 ft | 291 kts | 86° |
| 2026-05-01 10:54 | -33.93199 | 151.46936 | 10903 ft | 315 kts | 86° |
| 2026-05-01 10:54 | -33.93212 | 151.49665 | 11170 ft | 338 kts | 96° |
| 2026-05-01 10:54 | -33.93882 | 151.52425 | 11755 ft | 350 kts | 114° |
| 2026-05-01 10:54 | -33.95260 | 151.54865 | 12454 ft | 357 kts | 132° |
| 2026-05-01 10:55 | -33.97239 | 151.56695 | 13172 ft | 364 kts | 152° |
| 2026-05-01 10:55 | -33.99661 | 151.57619 | 13906 ft | 370 kts | 174° |
| 2026-05-01 10:55 | -34.02213 | 151.57309 | 14577 ft | 373 kts | 199° |
| 2026-05-01 10:55 | -34.04466 | 151.55768 | 15220 ft | 376 kts | 223° |
| 2026-05-01 10:56 | -34.06199 | 151.53403 | 15876 ft | 378 kts | 231° |
| 2026-05-01 10:56 | -34.07861 | 151.50931 | 16531 ft | 381 kts | 231° |
| 2026-05-01 10:56 | -34.09527 | 151.48438 | 17172 ft | 384 kts | 231° |
| 2026-05-01 10:56 | -34.11212 | 151.45917 | 17812 ft | 388 kts | 231° |
| 2026-05-01 10:57 | -34.12914 | 151.43373 | 18500 ft | 391 kts | 231° |
| 2026-05-01 10:57 | -34.14631 | 151.40816 | 19111 ft | 394 kts | 231° |
| 2026-05-01 10:57 | -34.16368 | 151.38235 | 19718 ft | 398 kts | 231° |
| 2026-05-01 10:57 | -34.18119 | 151.35632 | 20335 ft | 401 kts | 231° |
| 2026-05-01 10:58 | -34.19887 | 151.33003 | 20948 ft | 404 kts | 231° |
| 2026-05-01 10:58 | -34.21667 | 151.30356 | 21538 ft | 408 kts | 231° |
| 2026-05-01 10:58 | -34.23460 | 151.27684 | 22102 ft | 412 kts | 231° |
| 2026-05-01 10:58 | -34.25268 | 151.24982 | 22639 ft | 415 kts | 231° |
| 2026-05-01 10:59 | -34.27092 | 151.22253 | 23178 ft | 419 kts | 231° |
| 2026-05-01 10:59 | -34.28933 | 151.19505 | 23701 ft | 422 kts | 230° |
| 2026-05-01 10:59 | -34.30763 | 151.16771 | 24165 ft | 425 kts | 230° |
| 2026-05-01 10:59 | -34.32628 | 151.13985 | 24609 ft | 428 kts | 230° |
| 2026-05-01 11:00 | -34.34507 | 151.11178 | 25046 ft | 430 kts | 230° |
| 2026-05-01 11:00 | -34.36391 | 151.08360 | 25486 ft | 432 kts | 230° |
| 2026-05-01 11:00 | -34.38282 | 151.05526 | 25908 ft | 434 kts | 230° |
| 2026-05-01 11:00 | -34.40179 | 151.02676 | 26331 ft | 436 kts | 230° |
| 2026-05-01 11:01 | -34.42082 | 150.99804 | 26756 ft | 438 kts | 230° |
| 2026-05-01 11:01 | -34.43989 | 150.96922 | 27182 ft | 440 kts | 230° |
| 2026-05-01 11:01 | -34.45906 | 150.94030 | 27594 ft | 442 kts | 230° |
| 2026-05-01 11:01 | -34.47834 | 150.91125 | 28012 ft | 444 kts | 230° |
| 2026-05-01 11:02 | -34.49775 | 150.88200 | 28418 ft | 446 kts | 230° |
| 2026-05-01 11:02 | -34.51721 | 150.85265 | 28832 ft | 447 kts | 230° |
| 2026-05-01 11:02 | -34.53675 | 150.82318 | 29221 ft | 450 kts | 230° |
| 2026-05-01 11:02 | -34.55602 | 150.79327 | 29608 ft | 452 kts | 234° |
| 2026-05-01 11:03 | -34.57248 | 150.76061 | 29979 ft | 455 kts | 239° |
| 2026-05-01 11:03 | -34.58825 | 150.72724 | 30355 ft | 457 kts | 239° |
| 2026-05-01 11:03 | -34.60413 | 150.69379 | 30674 ft | 459 kts | 239° |
| 2026-05-01 11:03 | -34.62009 | 150.66025 | 31045 ft | 458 kts | 239° |
| 2026-05-01 11:04 | -34.63599 | 150.62682 | 31489 ft | 456 kts | 239° |
| 2026-05-01 11:04 | -34.65182 | 150.59353 | 31930 ft | 455 kts | 239° |
| 2026-05-01 11:04 | -34.66762 | 150.56027 | 32390 ft | 453 kts | 239° |
| 2026-05-01 11:04 | -34.68330 | 150.52720 | 32834 ft | 452 kts | 239° |
| 2026-05-01 11:05 | -34.69898 | 150.49404 | 33268 ft | 451 kts | 239° |
| 2026-05-01 11:05 | -34.71460 | 150.46102 | 33714 ft | 451 kts | 239° |
| 2026-05-01 11:05 | -34.73018 | 150.42802 | 34174 ft | 449 kts | 239° |
| 2026-05-01 11:05 | -34.74568 | 150.39511 | 34609 ft | 448 kts | 239° |
| 2026-05-01 11:06 | -34.76110 | 150.36227 | 35026 ft | 446 kts | 239° |
| 2026-05-01 11:06 | -34.77625 | 150.33000 | 35444 ft | 444 kts | 239° |
| 2026-05-01 11:06 | -34.79155 | 150.29738 | 35853 ft | 442 kts | 240° |
| 2026-05-01 11:07 | -34.82191 | 150.23264 | 36653 ft | 439 kts | 240° |
| 2026-05-01 11:07 | -34.83698 | 150.20051 | 37042 ft | 437 kts | 240° |
| 2026-05-01 11:07 | -34.85202 | 150.16843 | 37416 ft | 435 kts | 240° |
| 2026-05-01 11:07 | -34.86700 | 150.13646 | 37785 ft | 434 kts | 240° |
| 2026-05-01 11:08 | -34.88191 | 150.10462 | 38147 ft | 432 kts | 240° |
| 2026-05-01 11:08 | -34.89677 | 150.07282 | 38370 ft | 431 kts | 240° |
| 2026-05-01 11:09 | -34.94104 | 149.97769 | 38410 ft | 430 kts | 240° |
| 2026-05-01 11:09 | -34.97050 | 149.91432 | 38404 ft | 429 kts | 240° |
| 2026-05-01 11:10 | -35.01473 | 149.81933 | 38404 ft | 430 kts | 240° |
| 2026-05-01 11:10 | -35.04410 | 149.75583 | 38407 ft | 429 kts | 241° |
| 2026-05-01 11:11 | -35.07343 | 149.69227 | 38407 ft | 430 kts | 241° |
| 2026-05-01 11:11 | -35.10278 | 149.62868 | 38412 ft | 430 kts | 241° |
| 2026-05-01 11:12 | -35.13192 | 149.56541 | 38412 ft | 430 kts | 241° |
| 2026-05-01 11:12 | -35.16118 | 149.50169 | 38411 ft | 430 kts | 241° |
| 2026-05-01 11:13 | -35.19038 | 149.43786 | 38406 ft | 430 kts | 241° |
| 2026-05-01 11:13 | -35.21964 | 149.37403 | 38409 ft | 430 kts | 241° |
| 2026-05-01 11:14 | -35.24884 | 149.31018 | 38399 ft | 430 kts | 242° |
| 2026-05-01 11:14 | -35.27791 | 149.24634 | 38399 ft | 430 kts | 242° |
| 2026-05-01 11:15 | -35.30942 | 149.18419 | 38399 ft | 430 kts | 235° |
| 2026-05-01 11:15 | -35.34478 | 149.12506 | 38402 ft | 430 kts | 235° |
| 2026-05-01 11:16 | -35.38010 | 149.06577 | 38403 ft | 431 kts | 235° |
| 2026-05-01 11:16 | -35.41534 | 149.00639 | 38401 ft | 431 kts | 235° |
| 2026-05-01 11:17 | -35.44459 | 148.95699 | 38410 ft | 431 kts | 235° |
| 2026-05-01 11:17 | -35.48575 | 148.88741 | 38413 ft | 431 kts | 236° |
| 2026-05-01 11:18 | -35.51555 | 148.83835 | 38418 ft | 432 kts | 233° |
| 2026-05-01 11:18 | -35.55940 | 148.77167 | 38422 ft | 432 kts | 232° |
| 2026-05-01 11:19 | -35.59730 | 148.71440 | 38422 ft | 432 kts | 232° |
| 2026-05-01 11:19 | -35.62906 | 148.66649 | 38428 ft | 431 kts | 232° |
| 2026-05-01 11:20 | -35.66622 | 148.60911 | 38428 ft | 431 kts | 234° |
| 2026-05-01 11:20 | -35.70268 | 148.55053 | 38432 ft | 431 kts | 234° |
| 2026-05-01 11:21 | -35.73888 | 148.49204 | 38403 ft | 424 kts | 234° |
| 2026-05-01 11:21 | -35.77461 | 148.43473 | 38400 ft | 421 kts | 234° |
| 2026-05-01 11:22 | -35.81025 | 148.37767 | 38395 ft | 420 kts | 234° |
| 2026-05-01 11:22 | -35.84582 | 148.32057 | 38387 ft | 421 kts | 234° |
| 2026-05-01 11:23 | -35.88195 | 148.26249 | 38387 ft | 431 kts | 235° |
| 2026-05-01 11:23 | -35.91844 | 148.20353 | 38383 ft | 433 kts | 235° |
| 2026-05-01 11:24 | -35.95509 | 148.14448 | 38372 ft | 434 kts | 235° |
| 2026-05-01 11:25 | -36.01006 | 148.05564 | 38363 ft | 434 kts | 235° |
| 2026-05-01 11:25 | -36.06500 | 147.96651 | 38365 ft | 435 kts | 235° |
| 2026-05-01 11:26 | -36.11995 | 147.87704 | 38358 ft | 436 kts | 235° |
| 2026-05-01 11:27 | -36.15662 | 147.81726 | 38361 ft | 437 kts | 235° |
| 2026-05-01 11:27 | -36.19334 | 147.75736 | 38366 ft | 437 kts | 235° |
| 2026-05-01 11:28 | -36.23001 | 147.69741 | 38378 ft | 437 kts | 236° |
| 2026-05-01 11:28 | -36.26653 | 147.63758 | 38366 ft | 438 kts | 235° |
| 2026-05-01 11:29 | -36.32170 | 147.54713 | 38355 ft | 439 kts | 236° |
| 2026-05-01 11:30 | -36.37683 | 147.45634 | 38356 ft | 440 kts | 236° |
| 2026-05-01 11:30 | -36.41358 | 147.39564 | 38356 ft | 440 kts | 236° |
| 2026-05-01 11:31 | -36.45030 | 147.33485 | 38361 ft | 440 kts | 236° |
| 2026-05-01 11:31 | -36.48704 | 147.27405 | 38363 ft | 440 kts | 236° |
| 2026-05-01 11:32 | -36.52382 | 147.21319 | 38361 ft | 440 kts | 236° |
| 2026-05-01 11:32 | -36.56052 | 147.15219 | 38364 ft | 440 kts | 236° |
| 2026-05-01 11:33 | -36.59713 | 147.09106 | 38364 ft | 440 kts | 236° |
| 2026-05-01 11:33 | -36.63377 | 147.03000 | 38364 ft | 440 kts | 236° |
| 2026-05-01 11:34 | -36.67016 | 146.96928 | 38363 ft | 440 kts | 236° |
| 2026-05-01 11:34 | -36.70673 | 146.90817 | 38361 ft | 440 kts | 236° |
| 2026-05-01 11:35 | -36.74322 | 146.84695 | 38370 ft | 440 kts | 236° |
| 2026-05-01 11:35 | -36.77963 | 146.78563 | 38362 ft | 440 kts | 237° |
| 2026-05-01 11:36 | -36.81608 | 146.72424 | 38368 ft | 440 kts | 237° |
| 2026-05-01 11:36 | -36.85256 | 146.66283 | 38356 ft | 440 kts | 237° |
| 2026-05-01 11:37 | -36.88899 | 146.60134 | 38361 ft | 440 kts | 237° |
| 2026-05-01 11:37 | -36.90717 | 146.57058 | 38118 ft | 441 kts | 237° |
| 2026-05-01 11:37 | -36.92551 | 146.53954 | 37138 ft | 442 kts | 237° |
| 2026-05-01 11:37 | -36.94374 | 146.50874 | 36504 ft | 441 kts | 237° |
| 2026-05-01 11:38 | -36.96201 | 146.47783 | 35771 ft | 443 kts | 237° |
| 2026-05-01 11:38 | -36.98035 | 146.44670 | 34936 ft | 447 kts | 237° |
| 2026-05-01 11:38 | -36.99880 | 146.41530 | 34083 ft | 449 kts | 237° |
| 2026-05-01 11:38 | -37.01737 | 146.38364 | 33098 ft | 453 kts | 236° |
| 2026-05-01 11:39 | -37.03606 | 146.35178 | 32106 ft | 457 kts | 236° |
| 2026-05-01 11:39 | -37.05469 | 146.31999 | 31175 ft | 460 kts | 236° |
| 2026-05-01 11:39 | -37.07393 | 146.28714 | 30075 ft | 465 kts | 236° |
| 2026-05-01 11:39 | -37.09285 | 146.25481 | 29223 ft | 463 kts | 236° |
| 2026-05-01 11:40 | -37.11168 | 146.22265 | 28707 ft | 454 kts | 236° |
| 2026-05-01 11:40 | -37.13014 | 146.19110 | 28013 ft | 450 kts | 236° |
| 2026-05-01 11:40 | -37.14869 | 146.15940 | 27337 ft | 445 kts | 236° |
| 2026-05-01 11:40 | -37.16693 | 146.12819 | 26672 ft | 442 kts | 236° |
| 2026-05-01 11:41 | -37.18498 | 146.09725 | 26009 ft | 439 kts | 237° |
| 2026-05-01 11:41 | -37.20295 | 146.06641 | 25350 ft | 436 kts | 237° |
| 2026-05-01 11:41 | -37.22076 | 146.03579 | 24697 ft | 434 kts | 237° |
| 2026-05-01 11:41 | -37.23848 | 146.00528 | 24056 ft | 431 kts | 237° |
| 2026-05-01 11:42 | -37.25605 | 145.97495 | 23355 ft | 428 kts | 237° |
| 2026-05-01 11:42 | -37.27347 | 145.94489 | 22750 ft | 423 kts | 237° |
| 2026-05-01 11:42 | -37.29072 | 145.91517 | 22159 ft | 419 kts | 237° |
| 2026-05-01 11:42 | -37.30782 | 145.88568 | 21586 ft | 415 kts | 237° |
| 2026-05-01 11:43 | -37.32473 | 145.85652 | 21026 ft | 412 kts | 237° |
| 2026-05-01 11:43 | -37.34154 | 145.82751 | 20476 ft | 409 kts | 237° |
| 2026-05-01 11:43 | -37.35826 | 145.79858 | 19919 ft | 408 kts | 237° |
| 2026-05-01 11:44 | -37.39139 | 145.74109 | 18802 ft | 405 kts | 237° |
| 2026-05-01 11:44 | -37.40790 | 145.71241 | 18161 ft | 404 kts | 237° |
| 2026-05-01 11:44 | -37.42427 | 145.68392 | 17567 ft | 400 kts | 237° |
| 2026-05-01 11:44 | -37.44051 | 145.65566 | 16965 ft | 397 kts | 237° |
| 2026-05-01 11:45 | -37.45664 | 145.62761 | 16364 ft | 394 kts | 236° |
| 2026-05-01 11:45 | -37.47275 | 145.59982 | 15764 ft | 391 kts | 236° |
| 2026-05-01 11:45 | -37.48877 | 145.57233 | 15166 ft | 388 kts | 236° |
| 2026-05-01 11:45 | -37.50448 | 145.54542 | 14568 ft | 385 kts | 236° |
| 2026-05-01 11:46 | -37.52030 | 145.51830 | 13956 ft | 383 kts | 236° |
| 2026-05-01 11:46 | -37.53596 | 145.49140 | 13322 ft | 379 kts | 236° |
| 2026-05-01 11:46 | -37.55147 | 145.46473 | 12730 ft | 375 kts | 236° |
| 2026-05-01 11:46 | -37.56678 | 145.43834 | 12136 ft | 371 kts | 236° |
| 2026-05-01 11:47 | -37.58189 | 145.41225 | 11554 ft | 367 kts | 236° |
| 2026-05-01 11:47 | -37.59691 | 145.38628 | 10970 ft | 364 kts | 236° |
| 2026-05-01 11:47 | -37.61158 | 145.36091 | 10755 ft | 351 kts | 236° |
| 2026-05-01 11:47 | -37.62566 | 145.33658 | 10625 ft | 334 kts | 236° |
| 2026-05-01 11:48 | -37.63883 | 145.31383 | 10432 ft | 311 kts | 236° |
| 2026-05-01 11:48 | -37.65131 | 145.29220 | 9929 ft | 301 kts | 236° |
| 2026-05-01 11:48 | -37.66344 | 145.27112 | 9683 ft | 295 kts | 236° |
| 2026-05-01 11:48 | -37.67553 | 145.25007 | 9548 ft | 296 kts | 236° |
| 2026-05-01 11:49 | -37.68763 | 145.22905 | 9296 ft | 296 kts | 236° |
| 2026-05-01 11:49 | -37.69972 | 145.20800 | 8896 ft | 296 kts | 237° |
| 2026-05-01 11:49 | -37.71192 | 145.18673 | 8457 ft | 298 kts | 237° |
| 2026-05-01 11:49 | -37.72399 | 145.16571 | 8126 ft | 295 kts | 237° |
| 2026-05-01 11:50 | -37.73596 | 145.14482 | 7741 ft | 290 kts | 237° |
| 2026-05-01 11:50 | -37.74744 | 145.12485 | 7552 ft | 271 kts | 238° |
| 2026-05-01 11:50 | -37.75818 | 145.10622 | 7337 ft | 256 kts | 238° |
| 2026-05-01 11:50 | -37.76859 | 145.08810 | 7058 ft | 253 kts | 238° |
| 2026-05-01 11:51 | -37.77885 | 145.07019 | 6791 ft | 251 kts | 239° |
| 2026-05-01 11:51 | -37.78908 | 145.05233 | 6497 ft | 251 kts | 239° |
| 2026-05-01 11:51 | -37.79928 | 145.03449 | 6202 ft | 250 kts | 239° |
| 2026-05-01 11:51 | -37.80915 | 145.01648 | 5889 ft | 247 kts | 245° |
| 2026-05-01 11:52 | -37.81566 | 144.99677 | 5629 ft | 238 kts | 261° |
| 2026-05-01 11:52 | -37.81916 | 144.97700 | 5502 ft | 222 kts | 263° |
| 2026-05-01 11:52 | -37.82248 | 144.95830 | 5117 ft | 217 kts | 263° |
| 2026-05-01 11:52 | -37.82575 | 144.93959 | 4533 ft | 217 kts | 265° |
| 2026-05-01 11:53 | -37.82833 | 144.92106 | 3957 ft | 217 kts | 267° |
| 2026-05-01 11:53 | -37.83062 | 144.90229 | 3509 ft | 212 kts | 268° |
| 2026-05-01 11:53 | -37.83128 | 144.88443 | 3292 ft | 194 kts | 291° |
| 2026-05-01 11:53 | -37.82474 | 144.87068 | 3170 ft | 179 kts | 326° |
| 2026-05-01 11:54 | -37.81380 | 144.86481 | 2904 ft | 170 kts | 355° |
| 2026-05-01 11:54 | -37.80229 | 144.86274 | 2671 ft | 164 kts | 355° |
| 2026-05-01 11:54 | -37.79132 | 144.86068 | 2438 ft | 154 kts | 355° |
| 2026-05-01 11:54 | -37.78083 | 144.85870 | 2230 ft | 150 kts | 355° |
| 2026-05-01 11:55 | -37.77103 | 144.85687 | 2029 ft | 136 kts | 356° |
| 2026-05-01 11:55 | -37.76220 | 144.85518 | 1878 ft | 121 kts | 356° |
| 2026-05-01 11:55 | -37.75406 | 144.85365 | 1714 ft | 117 kts | 358° |
| 2026-05-01 11:55 | -37.74602 | 144.85216 | 1544 ft | 118 kts | 357° |
| 2026-05-01 11:56 | -37.73783 | 144.85067 | 1389 ft | 120 kts | 357° |
| 2026-05-01 11:56 | -37.72949 | 144.84914 | 1224 ft | 123 kts | 354° |
| 2026-05-01 11:56 | -37.72091 | 144.84756 | 1061 ft | 127 kts | 354° |
| 2026-05-01 11:56 | -37.71208 | 144.84597 | 904 ft | 129 kts | 354° |
| 2026-05-01 11:57 | -37.70323 | 144.84407 | 746 ft | 129 kts | 351° |
| 2026-05-01 11:57 | -37.69735 | 144.84301 | 633 ft | 128 kts | 351° |
| 2026-05-01 11:57 | -37.68551 | 144.84088 | 405 ft | 128 kts | 352° |
| 2026-05-01 11:57 | -37.67745 | 144.83944 | 366 ft | 96 kts | 352° |
| 2026-05-01 11:58 | -37.67254 | 144.83853 | 377 ft | 47 kts | 352° |
| 2026-05-01 11:58 | -37.67050 | 144.83835 | 384 ft | 24 kts | 5° |
| 2026-05-01 11:58 | -37.66829 | 144.83918 | 392 ft | 0 kts | 21° |
| 2026-05-01 11:59 | -37.66828 | 144.83919 | 392 ft | 1 kts | 21° |
| 2026-05-01 12:00 | -37.66751 | 144.83969 | 394 ft | 14 kts | 43° |
| 2026-05-01 12:00 | -37.66719 | 144.84082 | 391 ft | 15 kts | 96° |
| 2026-05-01 12:00 | -37.66882 | 144.84210 | 389 ft | 17 kts | 172° |
| 2026-05-01 12:01 | -37.67016 | 144.84235 | 386 ft | 22 kts | 172° |
| 2026-05-01 12:01 | -37.67155 | 144.84261 | 383 ft | 23 kts | 172° |
| 2026-05-01 12:01 | -37.67295 | 144.84287 | 380 ft | 18 kts | 172° |
| 2026-05-01 12:01 | -37.67416 | 144.84310 | 377 ft | 15 kts | 172° |
| 2026-05-01 12:02 | -37.67477 | 144.84373 | 377 ft | 8 kts | 82° |
| 2026-05-01 12:02 | -37.67469 | 144.84454 | 378 ft | 10 kts | 82° |
| 2026-05-01 12:02 | -37.67496 | 144.84537 | 378 ft | 12 kts | 151° |
| 2026-05-01 12:02 | -37.67575 | 144.84557 | 376 ft | 9 kts | 166° |
| 2026-05-01 12:03 | -37.67579 | 144.84602 | 376 ft | 5 kts | 76° |
| 2026-05-01 12:03 | -37.67575 | 144.84643 | 377 ft | 4 kts | 82° |
| 2026-05-01 12:03 | -37.67573 | 144.84657 | 377 ft | 0 kts | 81° |